createdAt,value
2022-08-19T00:01:10.144Z,19.30
2022-08-19T00:03:58.836Z,19.30
2022-08-19T00:06:48.516Z,19.30
2022-08-19T00:09:37.516Z,19.30
2022-08-19T00:12:24.949Z,19.30
2022-08-19T00:15:15.865Z,19.30
2022-08-19T00:18:03.357Z,19.30
2022-08-19T00:20:51.051Z,19.30
2022-08-19T00:23:39.089Z,19.30
2022-08-19T00:26:29.249Z,19.30
2022-08-19T00:29:19.177Z,19.30
2022-08-19T00:32:07.089Z,19.40
2022-08-19T00:34:57.943Z,19.40
2022-08-19T00:37:46.126Z,19.40
2022-08-19T00:40:34.548Z,19.40
2022-08-19T00:43:27.496Z,19.40
2022-08-19T00:46:15.198Z,19.40
2022-08-19T00:49:04.528Z,19.40
2022-08-19T00:51:57.698Z,19.40
2022-08-19T00:54:52.398Z,19.40
2022-08-19T00:57:45.758Z,19.40
2022-08-19T01:00:38.136Z,19.40
2022-08-19T01:03:27.138Z,19.30
2022-08-19T01:06:15.671Z,19.30
2022-08-19T01:09:08.164Z,19.30
2022-08-19T01:11:56.224Z,19.40
2022-08-19T01:14:43.965Z,19.40
2022-08-19T01:17:33.427Z,19.40
2022-08-19T01:20:24.920Z,19.40
2022-08-19T01:23:15.337Z,19.40
2022-08-19T01:26:02.943Z,19.40
2022-08-19T01:28:52.337Z,19.40
2022-08-19T01:31:40.441Z,19.40
2022-08-19T01:34:28.040Z,19.30
2022-08-19T01:37:24.858Z,19.30
2022-08-19T01:40:20.450Z,19.40
2022-08-19T01:43:08.812Z,19.40
2022-08-19T01:45:56.773Z,19.30
2022-08-19T01:48:48.254Z,19.30
2022-08-19T01:51:39.743Z,19.40
2022-08-19T01:54:28.164Z,19.30
2022-08-19T01:57:17.913Z,19.30
2022-08-19T02:00:08.025Z,19.30
2022-08-19T02:02:58.635Z,19.30
2022-08-19T02:05:46.780Z,19.30
2022-08-19T02:08:36.865Z,19.30
2022-08-19T02:11:27.595Z,19.30
2022-08-19T02:14:16.349Z,19.30
2022-08-19T02:17:03.707Z,19.30
2022-08-19T02:19:51.079Z,19.30
2022-08-19T02:22:38.911Z,19.30
2022-08-19T02:25:26.188Z,19.30
2022-08-19T02:28:16.764Z,19.20
2022-08-19T02:31:11.935Z,19.20
2022-08-19T02:33:59.394Z,19.30
2022-08-19T02:36:46.655Z,19.20
2022-08-19T02:39:38.386Z,19.30
2022-08-19T02:42:26.586Z,19.30
2022-08-19T02:45:14.719Z,19.30
2022-08-19T02:48:03.445Z,19.30
2022-08-19T02:51:00.800Z,19.30
2022-08-19T02:53:49.108Z,19.30
2022-08-19T02:56:38.390Z,19.30
2022-08-19T02:59:26.920Z,19.30
2022-08-19T03:02:14.382Z,19.30
2022-08-19T03:05:05.141Z,19.20
2022-08-19T03:07:52.421Z,19.20
2022-08-19T03:10:46.201Z,19.20
2022-08-19T03:13:34.074Z,19.20
2022-08-19T03:16:24.025Z,19.20
2022-08-19T03:19:11.650Z,19.10
2022-08-19T03:22:01.936Z,19.20
2022-08-19T03:24:49.550Z,19.20
2022-08-19T03:27:36.646Z,19.20
2022-08-19T03:30:23.864Z,19.20
2022-08-19T03:33:15.861Z,19.20
2022-08-19T03:36:10.511Z,19.20
2022-08-19T03:39:02.369Z,19.20
2022-08-19T03:42:38.202Z,19.20
2022-08-19T03:45:05.478Z,19.20
2022-08-19T03:47:53.163Z,19.20
2022-08-19T03:50:42.544Z,19.20
2022-08-19T03:53:31.189Z,19.20
2022-08-19T03:56:20.854Z,19.20
2022-08-19T03:59:09.285Z,19.30
2022-08-19T04:01:58.677Z,19.30
2022-08-19T04:04:46.636Z,19.30
2022-08-19T04:07:34.204Z,19.30
2022-08-19T04:10:21.757Z,19.30
2022-08-19T04:13:10.499Z,19.30
2022-08-19T04:15:57.896Z,19.30
2022-08-19T04:18:45.759Z,19.40
2022-08-19T04:21:33.871Z,19.40
2022-08-19T04:24:22.508Z,19.40
2022-08-19T04:27:10.487Z,19.30
2022-08-19T04:30:00.284Z,19.40
2022-08-19T04:32:47.622Z,19.40
2022-08-19T04:35:39.661Z,19.30
2022-08-19T04:38:26.803Z,19.40
2022-08-19T04:41:27.969Z,19.40
2022-08-19T04:44:19.125Z,19.40
2022-08-19T04:47:11.333Z,19.40
2022-08-19T04:49:59.704Z,19.40
2022-08-19T04:52:47.327Z,19.40
2022-08-19T04:55:38.271Z,19.40
2022-08-19T04:58:27.389Z,19.40
2022-08-19T05:01:16.018Z,19.40
2022-08-19T05:04:07.732Z,19.40
2022-08-19T05:06:56.961Z,19.40
2022-08-19T05:09:57.681Z,19.40
2022-08-19T05:12:46.274Z,19.40
2022-08-19T05:15:33.961Z,19.40
2022-08-19T05:18:35.371Z,19.40
2022-08-19T05:21:43.032Z,19.40
2022-08-19T05:24:32.625Z,19.40
2022-08-19T05:27:19.054Z,19.40
2022-08-19T05:30:06.385Z,19.40
2022-08-19T05:32:54.624Z,19.40
2022-08-19T05:35:43.362Z,19.40
2022-08-19T05:38:34.950Z,19.40
2022-08-19T05:41:30.924Z,19.50
2022-08-19T05:44:32.779Z,19.50
2022-08-19T05:47:22.189Z,19.50
2022-08-19T05:50:10.109Z,19.50
2022-08-19T05:52:57.882Z,19.50
2022-08-19T05:55:46.384Z,19.50
2022-08-19T05:58:33.924Z,19.50
2022-08-19T06:01:22.424Z,19.50
2022-08-19T06:04:09.735Z,19.50
2022-08-19T06:06:57.391Z,19.50
2022-08-19T06:09:59.069Z,19.60
2022-08-19T06:12:50.286Z,19.60
2022-08-19T06:15:37.517Z,19.60
2022-08-19T06:18:25.359Z,19.60
2022-08-19T06:21:12.949Z,19.70
2022-08-19T06:24:03.492Z,19.70
2022-08-19T06:26:53.107Z,19.70
2022-08-19T06:29:43.830Z,19.70
2022-08-19T06:32:31.511Z,19.70
2022-08-19T06:35:19.012Z,19.70
2022-08-19T06:38:06.352Z,19.70
2022-08-19T06:41:02.428Z,19.60
2022-08-19T06:43:57.351Z,19.70
2022-08-19T06:46:54.603Z,19.70
2022-08-19T06:49:42.863Z,19.70
2022-08-19T06:52:38.201Z,19.70
2022-08-19T06:55:26.426Z,19.80
2022-08-19T06:58:14.374Z,19.80
2022-08-19T07:01:05.749Z,19.80
2022-08-19T07:03:57.605Z,19.90
2022-08-19T07:06:54.858Z,19.90
2022-08-19T07:09:58.544Z,20.00
2022-08-19T07:12:50.172Z,20.00
2022-08-19T07:15:39.796Z,19.90
2022-08-19T07:18:27.583Z,19.90
2022-08-19T07:21:18.280Z,19.90
2022-08-19T07:24:07.243Z,20.00
2022-08-19T07:27:03.217Z,20.00
2022-08-19T07:29:57.118Z,20.10
2022-08-19T07:32:45.966Z,20.10
2022-08-19T07:35:34.698Z,20.10
2022-08-19T07:38:23.427Z,20.10
2022-08-19T07:41:12.971Z,20.20
2022-08-19T07:44:04.710Z,20.20
2022-08-19T07:46:55.478Z,20.30
2022-08-19T07:49:43.418Z,20.30
2022-08-19T07:52:30.991Z,20.30
2022-08-19T07:55:42.404Z,20.40
2022-08-19T07:58:35.223Z,20.40
2022-08-19T08:01:24.428Z,20.40
2022-08-19T08:04:25.847Z,20.30
2022-08-19T08:07:31.504Z,20.30
2022-08-19T08:10:20.945Z,20.40
2022-08-19T08:13:10.128Z,20.30
2022-08-19T08:15:58.786Z,20.40
2022-08-19T08:18:50.524Z,20.40
2022-08-19T08:24:31.767Z,20.40
2022-08-19T08:27:22.620Z,20.50
2022-08-19T08:30:45.319Z,20.40
2022-08-19T08:33:35.343Z,20.50
2022-08-19T08:36:23.172Z,20.40
2022-08-19T08:39:11.521Z,20.40
2022-08-19T08:42:17.753Z,20.40
2022-08-19T08:45:17.029Z,20.40
2022-08-19T08:48:24.245Z,20.40
2022-08-19T08:51:20.295Z,20.40
2022-08-19T08:54:11.045Z,20.40
2022-08-19T08:56:59.120Z,20.30
2022-08-19T08:59:51.778Z,20.40
2022-08-19T09:02:40.898Z,20.40
2022-08-19T09:05:48.474Z,20.30
2022-08-19T09:08:46.304Z,20.30
2022-08-19T09:11:53.104Z,20.30
2022-08-19T09:14:51.997Z,20.30
2022-08-19T09:17:41.252Z,20.30
2022-08-19T09:20:29.061Z,20.30
2022-08-19T09:23:16.740Z,20.30
2022-08-19T09:26:09.342Z,20.30
2022-08-19T09:28:59.418Z,20.30
2022-08-19T09:31:46.760Z,20.20
2022-08-19T09:34:37.983Z,20.30
2022-08-19T09:37:26.388Z,20.40
2022-08-19T09:40:15.446Z,20.40
2022-08-19T09:43:12.916Z,20.50
2022-08-19T09:46:01.600Z,20.50
2022-08-19T09:48:49.964Z,20.50
2022-08-19T09:51:38.916Z,20.50
2022-08-19T09:54:27.270Z,20.60
2022-08-19T09:57:14.702Z,20.60
2022-08-19T10:00:04.231Z,20.70
2022-08-19T10:02:57.074Z,20.70
2022-08-19T10:05:59.310Z,20.80
2022-08-19T10:08:50.255Z,20.80
2022-08-19T10:11:39.970Z,20.80
2022-08-19T10:14:29.728Z,20.90
2022-08-19T10:17:21.435Z,21.00
2022-08-19T10:20:11.292Z,21.00
2022-08-19T10:23:00.689Z,21.20
2022-08-19T10:25:51.559Z,21.30
2022-08-19T10:28:39.876Z,21.40
2022-08-19T10:32:02.423Z,21.50
2022-08-19T10:34:48.949Z,21.70
2022-08-19T10:37:49.786Z,21.90
2022-08-19T10:40:45.959Z,22.10
2022-08-19T10:43:37.134Z,22.30
2022-08-19T10:46:26.290Z,22.50
2022-08-19T10:49:14.047Z,22.60
2022-08-19T10:52:18.667Z,22.70
2022-08-19T10:55:29.372Z,22.90
2022-08-19T10:58:18.466Z,23.00
2022-08-19T11:01:06.209Z,23.10
2022-08-19T11:03:53.149Z,23.10
2022-08-19T11:06:42.234Z,23.10
2022-08-19T11:09:33.987Z,23.10
2022-08-19T11:12:23.043Z,23.00
2022-08-19T11:15:12.978Z,22.90
2022-08-19T11:18:01.921Z,22.80
2022-08-19T11:20:50.303Z,22.70
2022-08-19T11:23:37.915Z,22.70
2022-08-19T11:26:26.585Z,22.70
2022-08-19T11:29:15.427Z,22.70
2022-08-19T11:32:06.493Z,22.70
2022-08-19T11:34:55.856Z,22.70
2022-08-19T11:37:42.726Z,22.60
2022-08-19T11:40:30.250Z,22.70
2022-08-19T11:43:17.554Z,22.80
2022-08-19T11:46:08.144Z,22.90
2022-08-19T11:48:55.920Z,23.00
2022-08-19T11:51:45.688Z,23.10
2022-08-19T11:54:33.161Z,23.20
2022-08-19T11:57:20.956Z,23.30
2022-08-19T12:00:10.829Z,23.30
2022-08-19T12:02:58.192Z,23.30
2022-08-19T12:05:45.656Z,23.30
2022-08-19T12:08:34.422Z,23.20
2022-08-19T12:11:22.636Z,23.10
2022-08-19T12:14:15.230Z,23.00
2022-08-19T12:17:06.249Z,22.90
2022-08-19T12:19:53.526Z,22.80
2022-08-19T12:22:42.433Z,22.70
2022-08-19T12:25:34.065Z,22.70
2022-08-19T12:28:23.151Z,22.70
2022-08-19T12:31:13.308Z,22.70
2022-08-19T12:34:03.641Z,22.70
2022-08-19T12:36:51.329Z,22.70
2022-08-19T12:39:40.645Z,22.70
2022-08-19T12:42:29.599Z,22.70
2022-08-19T12:45:17.317Z,22.80
2022-08-19T12:48:32.836Z,22.80
2022-08-19T12:51:15.723Z,22.80
2022-08-19T12:54:03.546Z,22.80
2022-08-19T12:56:50.653Z,22.80
2022-08-19T12:59:40.990Z,23.00
2022-08-19T13:02:28.126Z,23.00
2022-08-19T13:05:18.022Z,23.10
2022-08-19T13:08:05.671Z,23.10
2022-08-19T13:10:52.890Z,23.20
2022-08-19T13:13:42.348Z,23.40
2022-08-19T13:16:31.943Z,23.50
2022-08-19T13:19:22.028Z,23.70
2022-08-19T13:22:13.269Z,23.80
2022-08-19T13:25:02.855Z,23.90
2022-08-19T13:27:51.929Z,23.90
2022-08-19T13:30:52.998Z,23.90
2022-08-19T13:33:40.682Z,23.90
2022-08-19T13:36:27.111Z,23.80
2022-08-19T13:39:13.581Z,23.80
2022-08-19T13:42:02.054Z,23.90
2022-08-19T13:44:49.371Z,23.90
2022-08-19T13:47:43.642Z,24.00
2022-08-19T13:50:33.782Z,24.00
2022-08-19T13:53:21.512Z,23.90
2022-08-19T13:56:12.104Z,23.80
2022-08-19T13:58:59.605Z,23.70
2022-08-19T14:01:47.386Z,23.60
2022-08-19T14:04:34.676Z,23.50
2022-08-19T14:07:24.679Z,23.50
2022-08-19T14:10:14.400Z,23.50
2022-08-19T14:13:04.097Z,23.50
2022-08-19T14:15:52.036Z,23.60
2022-08-19T14:18:40.401Z,23.70
2022-08-19T14:21:28.219Z,23.80
2022-08-19T14:24:16.909Z,24.00
2022-08-19T14:27:04.318Z,24.10
2022-08-19T14:29:53.275Z,24.10
2022-08-19T14:32:40.425Z,24.10
2022-08-19T14:35:28.864Z,24.10
2022-08-19T14:38:28.057Z,24.20
2022-08-19T14:41:24.655Z,24.10
2022-08-19T14:44:13.549Z,24.00
2022-08-19T14:47:00.642Z,23.90
2022-08-19T14:49:50.381Z,23.80
2022-08-19T14:52:37.286Z,23.70
2022-08-19T14:55:24.668Z,23.60
2022-08-19T14:58:29.621Z,23.60
2022-08-19T15:01:18.531Z,23.60
2022-08-19T15:04:05.871Z,23.60
2022-08-19T15:06:53.213Z,23.60
2022-08-19T15:09:40.589Z,23.60
2022-08-19T15:12:28.542Z,23.60
2022-08-19T15:15:18.454Z,23.60
2022-08-19T15:18:05.963Z,23.60
2022-08-19T15:20:53.869Z,23.40
2022-08-19T15:23:41.815Z,23.40
2022-08-19T15:26:33.935Z,23.40
2022-08-19T15:29:21.599Z,23.30
2022-08-19T15:32:10.722Z,23.20
2022-08-19T15:34:57.861Z,23.00
2022-08-19T15:37:46.372Z,22.80
2022-08-19T15:40:34.122Z,22.60
2022-08-19T15:43:22.821Z,22.40
2022-08-19T15:46:10.381Z,22.30
2022-08-19T15:49:07.174Z,22.20
2022-08-19T15:51:57.928Z,22.10
2022-08-19T15:54:45.042Z,22.10
2022-08-19T15:57:46.290Z,22.10
2022-08-19T16:00:53.024Z,22.00
2022-08-19T16:03:40.139Z,22.00
2022-08-19T16:06:29.909Z,22.00
2022-08-19T16:09:17.311Z,22.00
2022-08-19T16:12:08.790Z,22.00
2022-08-19T16:14:56.227Z,22.00
2022-08-19T16:17:43.955Z,22.00
2022-08-19T16:20:44.542Z,21.90
2022-08-19T16:23:33.565Z,21.90
2022-08-19T16:26:21.754Z,22.00
2022-08-19T16:29:12.867Z,22.00
2022-08-19T16:32:00.649Z,21.90
2022-08-19T16:34:51.039Z,21.90
2022-08-19T16:37:38.148Z,21.90
2022-08-19T16:40:26.994Z,21.90
2022-08-19T16:43:14.050Z,21.80
2022-08-19T16:46:01.732Z,21.80
2022-08-19T16:48:48.961Z,21.70
2022-08-19T16:51:36.402Z,21.70
2022-08-19T16:54:23.490Z,21.60
2022-08-19T16:57:12.927Z,21.60
2022-08-19T16:59:59.832Z,21.60
2022-08-19T17:02:47.186Z,21.50
2022-08-19T17:05:34.173Z,21.50
2022-08-19T17:08:23.945Z,21.40
2022-08-19T17:11:18.096Z,21.40
2022-08-19T17:14:10.105Z,21.40
2022-08-19T17:16:57.742Z,21.40
2022-08-19T17:19:45.172Z,21.30
2022-08-19T17:22:32.498Z,21.30
2022-08-19T17:25:19.608Z,21.30
2022-08-19T17:28:11.642Z,21.30
2022-08-19T17:31:00.084Z,21.20
2022-08-19T17:33:48.688Z,21.20
2022-08-19T17:36:38.571Z,21.20
2022-08-19T17:39:25.682Z,21.10
2022-08-19T17:42:15.238Z,21.10
2022-08-19T17:45:04.872Z,21.00
2022-08-19T17:47:53.874Z,21.00
2022-08-19T17:50:42.007Z,20.90
2022-08-19T17:53:31.992Z,20.80
2022-08-19T17:56:19.670Z,20.70
2022-08-19T17:59:07.845Z,20.60
2022-08-19T18:02:01.777Z,20.50
2022-08-19T18:04:56.151Z,20.40
2022-08-19T18:07:44.651Z,20.40
2022-08-19T18:10:35.407Z,20.30
2022-08-19T18:13:22.824Z,20.30
2022-08-19T18:16:12.568Z,20.20
2022-08-19T18:19:00.240Z,20.20
2022-08-19T18:21:49.583Z,20.10
2022-08-19T18:24:39.564Z,20.10
2022-08-19T18:27:28.405Z,20.10
2022-08-19T18:30:16.307Z,20.10
2022-08-19T18:33:09.146Z,20.00
2022-08-19T18:35:57.050Z,20.10
2022-08-19T18:39:02.878Z,20.00
2022-08-19T18:42:14.988Z,20.00
2022-08-19T18:45:19.730Z,20.00
2022-08-19T18:48:27.608Z,20.00
2022-08-19T18:51:16.149Z,20.00
2022-08-19T18:54:04.404Z,20.00
2022-08-19T18:56:51.195Z,19.90
2022-08-19T18:59:39.106Z,19.80
2022-08-19T19:02:27.995Z,19.80
2022-08-19T19:05:16.313Z,19.80
2022-08-19T19:08:03.942Z,19.70
2022-08-19T19:10:53.030Z,19.70
2022-08-19T19:13:41.670Z,19.60
2022-08-19T19:16:30.137Z,19.50
2022-08-19T19:19:19.501Z,19.50
2022-08-19T19:22:07.791Z,19.40
2022-08-19T19:24:55.841Z,19.40
2022-08-19T19:27:44.392Z,19.40
2022-08-19T19:30:32.043Z,19.30
2022-08-19T19:33:19.885Z,19.30
2022-08-19T19:36:07.575Z,19.30
2022-08-19T19:38:54.782Z,19.20
2022-08-19T19:41:42.577Z,19.20
2022-08-19T19:44:32.663Z,19.10
2022-08-19T19:47:24.736Z,19.10
2022-08-19T19:50:15.167Z,19.10
2022-08-19T19:53:03.823Z,19.10
2022-08-19T19:55:55.187Z,19.00
2022-08-19T19:58:43.397Z,18.90
2022-08-19T20:01:32.538Z,18.90
2022-08-19T20:04:20.871Z,18.90
2022-08-19T20:07:10.713Z,18.90
2022-08-19T20:10:00.190Z,18.90
2022-08-19T20:12:47.820Z,18.90
2022-08-19T20:15:39.051Z,18.80
2022-08-19T20:18:31.455Z,18.80
2022-08-19T20:21:18.812Z,18.70
2022-08-19T20:24:08.916Z,18.70
2022-08-19T20:26:57.436Z,18.70
2022-08-19T20:29:45.672Z,18.70
2022-08-19T20:32:33.319Z,18.70
2022-08-19T20:35:23.501Z,18.60
2022-08-19T20:38:10.879Z,18.70
2022-08-19T20:40:58.240Z,18.60
2022-08-19T20:43:45.641Z,18.60
2022-08-19T20:46:33.713Z,18.60
2022-08-19T20:49:21.464Z,18.60
2022-08-19T20:52:10.618Z,18.60
2022-08-19T20:54:57.585Z,18.70
2022-08-19T20:57:46.776Z,18.60
2022-08-19T21:00:34.044Z,18.60
2022-08-19T21:03:24.925Z,18.60
2022-08-19T21:06:14.850Z,18.60
2022-08-19T21:09:04.040Z,18.60
2022-08-19T21:11:51.762Z,18.60
2022-08-19T21:14:40.898Z,18.60
2022-08-19T21:17:28.361Z,18.60
2022-08-19T21:20:16.638Z,18.60
2022-08-19T21:23:05.922Z,18.70
2022-08-19T21:25:57.229Z,18.70
2022-08-19T21:28:44.655Z,18.70
2022-08-19T21:31:31.753Z,18.60
2022-08-19T21:34:19.882Z,18.60
2022-08-19T21:37:07.456Z,18.60
2022-08-19T21:39:59.728Z,18.60
2022-08-19T21:42:49.286Z,18.60
2022-08-19T21:45:37.107Z,18.70
2022-08-19T21:48:24.601Z,18.60
2022-08-19T21:51:12.168Z,18.60
2022-08-19T21:53:59.439Z,18.60
2022-08-19T21:56:47.219Z,18.60
2022-08-19T21:59:36.368Z,18.60
2022-08-19T22:02:23.987Z,18.60
2022-08-19T22:05:11.482Z,18.60
2022-08-19T22:08:00.630Z,18.60
2022-08-19T22:10:49.967Z,18.50
2022-08-19T22:13:40.520Z,18.60
2022-08-19T22:16:30.195Z,18.60
2022-08-19T22:19:17.672Z,18.60
2022-08-19T22:22:08.575Z,18.60
2022-08-19T22:25:01.667Z,18.60
2022-08-19T22:27:50.041Z,18.60
2022-08-19T22:30:39.157Z,18.60
2022-08-19T22:33:32.668Z,18.60
2022-08-19T22:36:20.790Z,18.60
2022-08-19T22:39:10.161Z,18.60
2022-08-19T22:41:57.603Z,18.60
2022-08-19T22:44:44.592Z,18.60
2022-08-19T22:47:34.216Z,18.60
2022-08-19T22:50:27.221Z,18.50
2022-08-19T22:53:13.461Z,18.60
2022-08-19T22:56:00.825Z,18.50
2022-08-19T22:58:50.802Z,18.50
2022-08-19T23:01:39.796Z,18.50
2022-08-19T23:04:30.507Z,18.50
2022-08-19T23:07:19.764Z,18.50
2022-08-19T23:10:12.282Z,18.50
2022-08-19T23:13:01.535Z,18.50
2022-08-19T23:15:49.735Z,18.50
2022-08-19T23:18:37.343Z,18.50
2022-08-19T23:21:27.009Z,18.50
2022-08-19T23:24:15.960Z,18.50
2022-08-19T23:27:17.071Z,18.40
2022-08-19T23:30:22.686Z,18.40
2022-08-19T23:33:16.161Z,18.40
2022-08-19T23:36:03.274Z,18.40
2022-08-19T23:38:50.868Z,18.30
2022-08-19T23:41:39.667Z,18.40
2022-08-19T23:44:26.788Z,18.40
2022-08-19T23:47:13.797Z,18.40
2022-08-19T23:50:05.883Z,18.40
2022-08-19T23:52:57.599Z,18.40
2022-08-19T23:55:47.524Z,18.40
2022-08-19T23:58:37.386Z,18.40
